Tiger — 9HA2271 — position and weather

sailwx.info

Track history (hours):
 
Tides and Currents Weather Stations Pressure Air Temp Water Temp Dewpoint Dewpoint Depression Visibility Wind Speed Wind Dir Waves Ship Positions

Tiger

Last reported at 2014-Sep-28 03:24 UTC. Time now 2014-Oct-25 07:47 UTC.
Position N 50°01' W 002°38'.
Warning: this ship's position is 27 days out of date.

Length 232 m; draft 9.9 m.

Type: Cargo ship. MMSI: 248223000.

Date/timePositionNaut miles runAvg speedWind from/ knotsBaromVisibWave heightAir tempDewpointWater temp
2014-Sep-28 03:24N 50°01' W 002°38'5218.2
2014-Sep-28 00:32N 50°23' W 001°25'1515.4
2014-Sep-27 23:34N 50°31' W 001°04'1212.0
2014-Sep-27 22:33N 50°42' W 000°59'1413.6
2014-Sep-27 21:33N 50°48' W 001°18'6 6.0
2014-Sep-27 20:31N 50°53' W 001°24'0 0.0
2014-Sep-27 18:31N 50°53' W 001°24'0 0.0
2014-Sep-27 15:19N 50°53' W 001°24'0 0.0
2014-Sep-27 14:25N 50°53' W 001°24'0 0.0
2014-Sep-27 13:31N 50°53' W 001°24'0 0.0
2014-Sep-27 11:25N 50°53' W 001°24'0 0.0
2014-Sep-27 10:34N 50°53' W 001°24'0 0.0
2014-Sep-27 09:31N 50°53' W 001°24'0 0.0
2014-Sep-27 08:31N 50°53' W 001°24'1 0.8
2014-Sep-27 07:33N 50°52' W 001°23'7 7.3
2014-Sep-27 06:33N 50°46' W 001°16'1515.0
2014-Sep-27 05:33N 50°40' W 000°55'4 3.6
2014-Sep-27 04:33N 50°37' W 000°52'5 4.8
2014-Sep-27 03:33N 50°32' W 000°48'4 4.2
2014-Sep-27 02:33N 50°28' W 000°46'6 6.2
2014-Sep-27 01:33N 50°23' W 000°41'38 9.5
2014-Sep-26 21:33N 49°49' W 000°16'1211.5
2014-Sep-26 20:33N 49°38' W 000°08'1312.6
2014-Sep-26 19:33N 49°29' E 000°05'4 3.5
2014-Sep-26 18:34N 49°29' E 000°10'2 1.5
2014-Sep-26 17:32N 49°28' E 000°13'0 0.0
2014-Sep-26 16:32N 49°28' E 000°13'0 0.0
2014-Sep-26 15:32N 49°28' E 000°13'0 0.0
2014-Sep-26 14:32N 49°28' E 000°13'0 0.0
2014-Sep-26 13:32N 49°28' E 000°13'0 0.0
2014-Sep-26 12:32N 49°28' E 000°13'0 0.0
2014-Sep-26 11:32N 49°28' E 000°13'0 0.0
2014-Sep-26 10:32N 49°28' E 000°13'0 0.0
2014-Sep-26 09:32N 49°28' E 000°13'0 0.0
2014-Sep-26 08:32N 49°28' E 000°13'0 0.0
2014-Sep-26 07:32N 49°28' E 000°13'0 0.0
2014-Sep-26 06:32N 49°28' E 000°13'0 0.0
2014-Sep-26 05:32N 49°28' E 000°13'0 0.0
2014-Sep-26 04:32N 49°28' E 000°13'0 0.0
2014-Sep-26 03:32N 49°28' E 000°13'0 0.0
2014-Sep-26 02:32N 49°28' E 000°13'0 0.0
2014-Sep-26 01:32N 49°28' E 000°13'0 0.0
2014-Sep-26 00:32N 49°28' E 000°13'0 0.0
2014-Sep-25 23:32N 49°28' E 000°13'0 0.0
2014-Sep-25 22:32N 49°28' E 000°13'0 0.0
2014-Sep-25 21:32N 49°28' E 000°13'0 0.0
2014-Sep-25 20:32N 49°28' E 000°13'0 0.0
2014-Sep-25 19:32N 49°28' E 000°13'0 0.0
2014-Sep-25 18:32N 49°28' E 000°13'0 0.0
2014-Sep-25 17:32N 49°28' E 000°13'0 0.0
2014-Sep-25 16:32N 49°28' E 000°13'0 0.0
2014-Sep-25 15:32N 49°28' E 000°13'0 0.0
2014-Sep-25 14:32N 49°28' E 000°13'0 0.0
2014-Sep-25 13:32N 49°28' E 000°13'0 0.0
2014-Sep-25 12:26N 49°28' E 000°13'0 0.1
2014-Sep-25 11:33N 49°28' E 000°13'2 1.6
2014-Sep-25 10:33N 49°28' E 000°10'9 9.1
2014-Sep-25 09:33N 49°31' W 000°03'6 5.9
2014-Sep-25 08:33N 49°33' W 000°12'8 8.1
2014-Sep-25 07:33N 49°39' W 000°20'9 9.4
2014-Sep-25 06:33N 49°48' W 000°25'4610.9
2014-Sep-25 02:19N 50°29' E 000°06'1417.6
2014-Sep-25 01:31N 50°33' E 000°28'1716.6
2014-Sep-25 00:30N 50°41' E 000°51'1515.4
2014-Sep-24 23:31N 50°50' E 001°11'1414.8
2014-Sep-24 22:33N 51°00' E 001°26'1716.9
2014-Sep-24 21:33N 51°12' E 001°45'1716.7
2014-Sep-24 20:33N 51°24' E 002°04'2016.2
2014-Sep-24 19:18N 51°23' E 002°36'1215.3
2014-Sep-24 18:31N 51°25' E 002°55'1212.7
2014-Sep-24 17:33N 51°20' E 003°13'0 0.4
2014-Sep-24 16:33N 51°20' E 003°13'1 0.8
2014-Sep-24 15:29N 51°19' E 003°14'0 0.0
2014-Sep-24 14:32N 51°19' E 003°14'0 0.0
2014-Sep-24 13:29N 51°19' E 003°14'0 0.0
2014-Sep-24 12:32N 51°19' E 003°14'0 0.0
2014-Sep-24 11:17N 51°19' E 003°14'0 0.0
2014-Sep-24 10:29N 51°19' E 003°14'0 0.0
2014-Sep-24 09:29N 51°19' E 003°14'0 0.0
2014-Sep-24 08:29N 51°19' E 003°14'0 0.0
2014-Sep-24 07:32N 51°19' E 003°14'0 0.0
2014-Sep-24 06:32N 51°19' E 003°14'0 0.0
2014-Sep-24 05:32N 51°19' E 003°14'0 0.0
2014-Sep-24 04:32N 51°19' E 003°14'0 0.0
2014-Sep-24 03:32N 51°19' E 003°14'0 0.0
2014-Sep-24 02:32N 51°19' E 003°14'0 0.0
2014-Sep-24 01:32N 51°19' E 003°14'0 0.0
2014-Sep-24 00:29N 51°19' E 003°14'0 0.0
2014-Sep-23 20:32N 51°19' E 003°14'0 0.0
2014-Sep-23 19:29N 51°19' E 003°14'0 0.0
2014-Sep-23 18:32N 51°19' E 003°14'0 0.0
2014-Sep-23 17:26N 51°19' E 003°14'0 0.0
2014-Sep-23 16:26N 51°19' E 003°14'0 0.0
2014-Sep-23 15:26N 51°19' E 003°14'0 0.0
2014-Sep-23 14:29N 51°19' E 003°14'0 0.0
2014-Sep-23 13:29N 51°19' E 003°14'1 1.3
2014-Sep-23 12:33N 51°20' E 003°13'1 0.7
2014-Sep-23 11:33N 51°21' E 003°13'10 9.2
2014-Sep-23 10:30N 51°23' E 002°57'9 9.3
2014-Sep-23 09:30N 51°25' E 002°43'6 6.0
2014-Sep-23 08:33N 51°30' E 002°40'5 5.3
2014-Sep-23 07:32N 51°35' E 002°43'1211.3
2014-Sep-23 06:31N 51°46' E 002°38'4715.5
2014-Sep-23 03:30N 52°26' E 003°17'1515.9
2014-Sep-23 02:33N 52°39' E 003°31'1817.9
2014-Sep-23 01:32N 52°53' E 003°51'1818.8
2014-Sep-23 00:33N 53°06' E 004°12'2419.4
2014-Sep-22 23:17N 53°26' E 004°36'1519.9
2014-Sep-22 22:33N 53°34' E 004°56'2019.6
2014-Sep-22 21:33N 53°39' E 005°28'1918.9
2014-Sep-22 20:33N 53°45' E 005°58'5818.1
2014-Sep-22 17:21N 53°59' E 007°34'1315.6
2014-Sep-22 16:33N 53°52' E 007°52'1717.2
2014-Sep-22 15:33N 53°43' E 008°16'1413.6
2014-Sep-22 14:34N 53°34' E 008°33'1 0.8
2014-Sep-22 13:32N 53°35' E 008°33'0 0.0
2014-Sep-22 12:32N 53°35' E 008°33'0 0.0
2014-Sep-22 11:32N 53°35' E 008°33'0 0.0
2014-Sep-22 10:32N 53°35' E 008°33'0 0.0
2014-Sep-22 09:32N 53°35' E 008°33'0 0.0
2014-Sep-22 08:32N 53°35' E 008°33'0 0.0
2014-Sep-22 07:32N 53°35' E 008°33'0 0.0
2014-Sep-22 06:32N 53°35' E 008°33'0 0.0
2014-Sep-22 05:32N 53°35' E 008°33'0 0.0
2014-Sep-22 04:32N 53°35' E 008°33'0 0.0
2014-Sep-22 03:32N 53°35' E 008°33'0 0.0
2014-Sep-22 02:32N 53°35' E 008°33'0 0.0
2014-Sep-22 01:33N 53°35' E 008°33'1 0.9
2014-Sep-22 00:33N 53°34' E 008°33'8 8.1
2014-Sep-21 23:33N 53°40' E 008°23'1716.6
2014-Sep-21 22:33N 53°51' E 008°02'6214.9
2014-Sep-21 18:25N 53°44' E 006°18'1416.1
2014-Sep-21 17:33N 53°40' E 005°56'1615.8
2014-Sep-21 16:33N 53°35' E 005°31'1616.2
2014-Sep-21 15:33N 53°29' E 005°05'1615.8
2014-Sep-21 14:33N 53°21' E 004°42'1716.2
2014-Sep-21 13:32N 53°07' E 004°29'1616.1
2014-Sep-21 12:33N 52°53' E 004°16'1616.3
2014-Sep-21 11:33N 52°40' E 004°00'1716.3
2014-Sep-21 10:32N 52°28' E 003°42'2217.3
2014-Sep-21 09:16N 52°08' E 003°27'1317.2
2014-Sep-21 08:31N 51°55' E 003°23'1514.7
2014-Sep-21 07:32N 51°42' E 003°12'1313.0
2014-Sep-21 06:33N 51°30' E 003°05'1010.1
2014-Sep-21 05:33N 51°24' E 003°18'1514.7
2014-Sep-21 04:33N 51°26' E 003°41'1211.5
2014-Sep-21 03:34N 51°26' E 003°60'1212.3
2014-Sep-21 02:34N 51°19' E 004°16'4 3.6
2014-Sep-21 01:34N 51°16' E 004°17'2 2.3
2014-Sep-21 00:33N 51°16' E 004°13'0 0.0
2014-Sep-20 23:30N 51°16' E 004°13'0 0.0
2014-Sep-20 22:33N 51°16' E 004°13'0 0.0
2014-Sep-20 21:33N 51°16' E 004°13'0 0.0
2014-Sep-20 20:30N 51°16' E 004°13'0 0.0
2014-Sep-20 19:33N 51°16' E 004°13'0 0.0
2014-Sep-20 18:30N 51°16' E 004°13'0 0.0
2014-Sep-20 17:33N 51°16' E 004°13'0 0.0
2014-Sep-20 16:33N 51°16' E 004°13'0 0.0
2014-Sep-20 15:33N 51°16' E 004°13'0 0.0
2014-Sep-20 14:33N 51°16' E 004°13'0 0.0
2014-Sep-20 13:33N 51°16' E 004°13'0 0.0
2014-Sep-20 12:33N 51°16' E 004°13'0 0.0
2014-Sep-20 11:33N 51°16' E 004°13'0 0.0
2014-Sep-20 10:33N 51°16' E 004°13'0 0.0
2014-Sep-20 09:33N 51°16' E 004°13'0 0.0
2014-Sep-20 08:33N 51°16' E 004°13'0 0.0
2014-Sep-20 07:33N 51°16' E 004°13'0 0.0
2014-Sep-20 06:30N 51°16' E 004°13'0 0.0
2014-Sep-20 05:33N 51°16' E 004°13'2 2.2
2014-Sep-20 04:33N 51°16' E 004°17'0 0.0
2014-Sep-20 03:34N 51°16' E 004°17'2 2.4
2014-Sep-20 02:34N 51°18' E 004°17'7 7.1
2014-Sep-20 01:33N 51°22' E 004°07'7 6.5
2014-Sep-20 00:33N 51°23' E 003°57'9 9.1
2014-Sep-19 23:33N 51°24' E 003°43'10 9.8
2014-Sep-19 22:33N 51°25' E 003°27'1313.1
2014-Sep-19 21:33N 51°24' E 003°06'1414.3
2014-Sep-19 20:33N 51°22' E 002°43'3 3.3
2014-Sep-19 19:31N 51°25' E 002°40'0 0.0
2014-Sep-19 18:31N 51°25' E 002°40'0 0.0
2014-Sep-19 17:31N 51°25' E 002°40'0 0.0
2014-Sep-19 16:19N 51°25' E 002°40'0 0.0
2014-Sep-19 15:25N 51°25' E 002°40'6 6.6
2014-Sep-19 14:32N 51°22' E 002°32'10 9.8
2014-Sep-19 13:33N 51°18' E 002°18'1312.6
2014-Sep-19 12:33N 51°11' E 002°01'1313.1
2014-Sep-19 11:34N 51°05' E 001°43'1313.4
2014-Sep-19 10:33N 50°55' E 001°28'1514.7
2014-Sep-19 09:33N 50°42' E 001°19'1916.0
2014-Sep-19 08:23N 50°30' E 000°57'1916.2
2014-Sep-19 07:11N 50°24' E 000°27'1517.3
2014-Sep-19 06:20N 50°20' E 000°05'1317.1
2014-Sep-19 05:33N 50°16' W 000°15'20611.4
2014-Sep-18 11:33N 50°39' W 005°36'1615.8
2014-Sep-18 10:33N 50°47' W 005°15'8116.2
2014-Sep-18 05:33N 51°21' W 003°19'1716.8
2014-Sep-18 04:33N 51°28' W 002°54'7 6.9
2014-Sep-18 03:33N 51°30' W 002°44'  
Track history (hours):
 
Tides and Currents Weather Stations Pressure Air Temp Water Temp Dewpoint Dewpoint Depression Visibility Wind Speed Wind Dir Waves Ship Positions

Tiger

Last reported at 2014-Sep-28 03:24 UTC. Time now 2014-Oct-25 07:47 UTC.
Position N 50°01' W 002°38'.
Warning: this ship's position is 27 days out of date.

Length 232 m; draft 9.9 m.

Type: Cargo ship. MMSI: 248223000.

Date/timePositionNaut miles runAvg speedWind from/ knotsBaromVisibWave heightAir tempDewpointWater temp
2014-Sep-28 03:24N 50°01' W 002°38'5218.2
2014-Sep-28 00:32N 50°23' W 001°25'1515.4
2014-Sep-27 23:34N 50°31' W 001°04'1212.0
2014-Sep-27 22:33N 50°42' W 000°59'1413.6
2014-Sep-27 21:33N 50°48' W 001°18'6 6.0
2014-Sep-27 20:31N 50°53' W 001°24'0 0.0
2014-Sep-27 18:31N 50°53' W 001°24'0 0.0
2014-Sep-27 15:19N 50°53' W 001°24'0 0.0
2014-Sep-27 14:25N 50°53' W 001°24'0 0.0
2014-Sep-27 13:31N 50°53' W 001°24'0 0.0
2014-Sep-27 11:25N 50°53' W 001°24'0 0.0
2014-Sep-27 10:34N 50°53' W 001°24'0 0.0
2014-Sep-27 09:31N 50°53' W 001°24'0 0.0
2014-Sep-27 08:31N 50°53' W 001°24'1 0.8
2014-Sep-27 07:33N 50°52' W 001°23'7 7.3
2014-Sep-27 06:33N 50°46' W 001°16'1515.0
2014-Sep-27 05:33N 50°40' W 000°55'4 3.6
2014-Sep-27 04:33N 50°37' W 000°52'5 4.8
2014-Sep-27 03:33N 50°32' W 000°48'4 4.2
2014-Sep-27 02:33N 50°28' W 000°46'6 6.2
2014-Sep-27 01:33N 50°23' W 000°41'38 9.5
2014-Sep-26 21:33N 49°49' W 000°16'1211.5
2014-Sep-26 20:33N 49°38' W 000°08'1312.6
2014-Sep-26 19:33N 49°29' E 000°05'4 3.5
2014-Sep-26 18:34N 49°29' E 000°10'2 1.5
2014-Sep-26 17:32N 49°28' E 000°13'0 0.0
2014-Sep-26 16:32N 49°28' E 000°13'0 0.0
2014-Sep-26 15:32N 49°28' E 000°13'0 0.0
2014-Sep-26 14:32N 49°28' E 000°13'0 0.0
2014-Sep-26 13:32N 49°28' E 000°13'0 0.0
2014-Sep-26 12:32N 49°28' E 000°13'0 0.0
2014-Sep-26 11:32N 49°28' E 000°13'0 0.0
2014-Sep-26 10:32N 49°28' E 000°13'0 0.0
2014-Sep-26 09:32N 49°28' E 000°13'0 0.0
2014-Sep-26 08:32N 49°28' E 000°13'0 0.0
2014-Sep-26 07:32N 49°28' E 000°13'0 0.0
2014-Sep-26 06:32N 49°28' E 000°13'0 0.0
2014-Sep-26 05:32N 49°28' E 000°13'0 0.0
2014-Sep-26 04:32N 49°28' E 000°13'0 0.0
2014-Sep-26 03:32N 49°28' E 000°13'0 0.0
2014-Sep-26 02:32N 49°28' E 000°13'0 0.0
2014-Sep-26 01:32N 49°28' E 000°13'0 0.0
2014-Sep-26 00:32N 49°28' E 000°13'0 0.0
2014-Sep-25 23:32N 49°28' E 000°13'0 0.0
2014-Sep-25 22:32N 49°28' E 000°13'0 0.0
2014-Sep-25 21:32N 49°28' E 000°13'0 0.0
2014-Sep-25 20:32N 49°28' E 000°13'0 0.0
2014-Sep-25 19:32N 49°28' E 000°13'0 0.0
2014-Sep-25 18:32N 49°28' E 000°13'0 0.0
2014-Sep-25 17:32N 49°28' E 000°13'0 0.0
2014-Sep-25 16:32N 49°28' E 000°13'0 0.0
2014-Sep-25 15:32N 49°28' E 000°13'0 0.0
2014-Sep-25 14:32N 49°28' E 000°13'0 0.0
2014-Sep-25 13:32N 49°28' E 000°13'0 0.0
2014-Sep-25 12:26N 49°28' E 000°13'0 0.1
2014-Sep-25 11:33N 49°28' E 000°13'2 1.6
2014-Sep-25 10:33N 49°28' E 000°10'9 9.1
2014-Sep-25 09:33N 49°31' W 000°03'6 5.9
2014-Sep-25 08:33N 49°33' W 000°12'8 8.1
2014-Sep-25 07:33N 49°39' W 000°20'9 9.4
2014-Sep-25 06:33N 49°48' W 000°25'4610.9
2014-Sep-25 02:19N 50°29' E 000°06'1417.6
2014-Sep-25 01:31N 50°33' E 000°28'1716.6
2014-Sep-25 00:30N 50°41' E 000°51'1515.4
2014-Sep-24 23:31N 50°50' E 001°11'1414.8
2014-Sep-24 22:33N 51°00' E 001°26'1716.9
2014-Sep-24 21:33N 51°12' E 001°45'1716.7
2014-Sep-24 20:33N 51°24' E 002°04'2016.2
2014-Sep-24 19:18N 51°23' E 002°36'1215.3
2014-Sep-24 18:31N 51°25' E 002°55'1212.7
2014-Sep-24 17:33N 51°20' E 003°13'0 0.4
2014-Sep-24 16:33N 51°20' E 003°13'1 0.8
2014-Sep-24 15:29N 51°19' E 003°14'0 0.0
2014-Sep-24 14:32N 51°19' E 003°14'0 0.0
2014-Sep-24 13:29N 51°19' E 003°14'0 0.0
2014-Sep-24 12:32N 51°19' E 003°14'0 0.0
2014-Sep-24 11:17N 51°19' E 003°14'0 0.0
2014-Sep-24 10:29N 51°19' E 003°14'0 0.0
2014-Sep-24 09:29N 51°19' E 003°14'0 0.0
2014-Sep-24 08:29N 51°19' E 003°14'0 0.0
2014-Sep-24 07:32N 51°19' E 003°14'0 0.0
2014-Sep-24 06:32N 51°19' E 003°14'0 0.0
2014-Sep-24 05:32N 51°19' E 003°14'0 0.0
2014-Sep-24 04:32N 51°19' E 003°14'0 0.0
2014-Sep-24 03:32N 51°19' E 003°14'0 0.0
2014-Sep-24 02:32N 51°19' E 003°14'0 0.0
2014-Sep-24 01:32N 51°19' E 003°14'0 0.0
2014-Sep-24 00:29N 51°19' E 003°14'0 0.0
2014-Sep-23 20:32N 51°19' E 003°14'0 0.0
2014-Sep-23 19:29N 51°19' E 003°14'0 0.0
2014-Sep-23 18:32N 51°19' E 003°14'0 0.0
2014-Sep-23 17:26N 51°19' E 003°14'0 0.0
2014-Sep-23 16:26N 51°19' E 003°14'0 0.0
2014-Sep-23 15:26N 51°19' E 003°14'0 0.0
2014-Sep-23 14:29N 51°19' E 003°14'0 0.0
2014-Sep-23 13:29N 51°19' E 003°14'1 1.3
2014-Sep-23 12:33N 51°20' E 003°13'1 0.7
2014-Sep-23 11:33N 51°21' E 003°13'10 9.2
2014-Sep-23 10:30N 51°23' E 002°57'9 9.3
2014-Sep-23 09:30N 51°25' E 002°43'6 6.0
2014-Sep-23 08:33N 51°30' E 002°40'5 5.3
2014-Sep-23 07:32N 51°35' E 002°43'1211.3
2014-Sep-23 06:31N 51°46' E 002°38'4715.5
2014-Sep-23 03:30N 52°26' E 003°17'1515.9
2014-Sep-23 02:33N 52°39' E 003°31'1817.9
2014-Sep-23 01:32N 52°53' E 003°51'1818.8
2014-Sep-23 00:33N 53°06' E 004°12'2419.4
2014-Sep-22 23:17N 53°26' E 004°36'1519.9
2014-Sep-22 22:33N 53°34' E 004°56'2019.6
2014-Sep-22 21:33N 53°39' E 005°28'1918.9
2014-Sep-22 20:33N 53°45' E 005°58'5818.1
2014-Sep-22 17:21N 53°59' E 007°34'1315.6
2014-Sep-22 16:33N 53°52' E 007°52'1717.2
2014-Sep-22 15:33N 53°43' E 008°16'1413.6
2014-Sep-22 14:34N 53°34' E 008°33'1 0.8
2014-Sep-22 13:32N 53°35' E 008°33'0 0.0
2014-Sep-22 12:32N 53°35' E 008°33'0 0.0
2014-Sep-22 11:32N 53°35' E 008°33'0 0.0
2014-Sep-22 10:32N 53°35' E 008°33'0 0.0
2014-Sep-22 09:32N 53°35' E 008°33'0 0.0
2014-Sep-22 08:32N 53°35' E 008°33'0 0.0
2014-Sep-22 07:32N 53°35' E 008°33'0 0.0
2014-Sep-22 06:32N 53°35' E 008°33'0 0.0
2014-Sep-22 05:32N 53°35' E 008°33'0 0.0
2014-Sep-22 04:32N 53°35' E 008°33'0 0.0
2014-Sep-22 03:32N 53°35' E 008°33'0 0.0
2014-Sep-22 02:32N 53°35' E 008°33'0 0.0
2014-Sep-22 01:33N 53°35' E 008°33'1 0.9
2014-Sep-22 00:33N 53°34' E 008°33'8 8.1
2014-Sep-21 23:33N 53°40' E 008°23'1716.6
2014-Sep-21 22:33N 53°51' E 008°02'6214.9
2014-Sep-21 18:25N 53°44' E 006°18'1416.1
2014-Sep-21 17:33N 53°40' E 005°56'1615.8
2014-Sep-21 16:33N 53°35' E 005°31'1616.2
2014-Sep-21 15:33N 53°29' E 005°05'1615.8
2014-Sep-21 14:33N 53°21' E 004°42'1716.2
2014-Sep-21 13:32N 53°07' E 004°29'1616.1
2014-Sep-21 12:33N 52°53' E 004°16'1616.3
2014-Sep-21 11:33N 52°40' E 004°00'1716.3
2014-Sep-21 10:32N 52°28' E 003°42'2217.3
2014-Sep-21 09:16N 52°08' E 003°27'1317.2
2014-Sep-21 08:31N 51°55' E 003°23'1514.7
2014-Sep-21 07:32N 51°42' E 003°12'1313.0
2014-Sep-21 06:33N 51°30' E 003°05'1010.1
2014-Sep-21 05:33N 51°24' E 003°18'1514.7
2014-Sep-21 04:33N 51°26' E 003°41'1211.5
2014-Sep-21 03:34N 51°26' E 003°60'1212.3
2014-Sep-21 02:34N 51°19' E 004°16'4 3.6
2014-Sep-21 01:34N 51°16' E 004°17'2 2.3
2014-Sep-21 00:33N 51°16' E 004°13'0 0.0
2014-Sep-20 23:30N 51°16' E 004°13'0 0.0
2014-Sep-20 22:33N 51°16' E 004°13'0 0.0
2014-Sep-20 21:33N 51°16' E 004°13'0 0.0
2014-Sep-20 20:30N 51°16' E 004°13'0 0.0
2014-Sep-20 19:33N 51°16' E 004°13'0 0.0
2014-Sep-20 18:30N 51°16' E 004°13'0 0.0
2014-Sep-20 17:33N 51°16' E 004°13'0 0.0
2014-Sep-20 16:33N 51°16' E 004°13'0 0.0
2014-Sep-20 15:33N 51°16' E 004°13'0 0.0
2014-Sep-20 14:33N 51°16' E 004°13'0 0.0
2014-Sep-20 13:33N 51°16' E 004°13'0 0.0
2014-Sep-20 12:33N 51°16' E 004°13'0 0.0
2014-Sep-20 11:33N 51°16' E 004°13'0 0.0
2014-Sep-20 10:33N 51°16' E 004°13'0 0.0
2014-Sep-20 09:33N 51°16' E 004°13'0 0.0
2014-Sep-20 08:33N 51°16' E 004°13'0 0.0
2014-Sep-20 07:33N 51°16' E 004°13'0 0.0
2014-Sep-20 06:30N 51°16' E 004°13'0 0.0
2014-Sep-20 05:33N 51°16' E 004°13'2 2.2
2014-Sep-20 04:33N 51°16' E 004°17'0 0.0
2014-Sep-20 03:34N 51°16' E 004°17'2 2.4
2014-Sep-20 02:34N 51°18' E 004°17'7 7.1
2014-Sep-20 01:33N 51°22' E 004°07'7 6.5
2014-Sep-20 00:33N 51°23' E 003°57'9 9.1
2014-Sep-19 23:33N 51°24' E 003°43'10 9.8
2014-Sep-19 22:33N 51°25' E 003°27'1313.1
2014-Sep-19 21:33N 51°24' E 003°06'1414.3
2014-Sep-19 20:33N 51°22' E 002°43'3 3.3
2014-Sep-19 19:31N 51°25' E 002°40'0 0.0
2014-Sep-19 18:31N 51°25' E 002°40'0 0.0
2014-Sep-19 17:31N 51°25' E 002°40'0 0.0
2014-Sep-19 16:19N 51°25' E 002°40'0 0.0
2014-Sep-19 15:25N 51°25' E 002°40'6 6.6
2014-Sep-19 14:32N 51°22' E 002°32'10 9.8
2014-Sep-19 13:33N 51°18' E 002°18'1312.6
2014-Sep-19 12:33N 51°11' E 002°01'1313.1
2014-Sep-19 11:34N 51°05' E 001°43'1313.4
2014-Sep-19 10:33N 50°55' E 001°28'1514.7
2014-Sep-19 09:33N 50°42' E 001°19'1916.0
2014-Sep-19 08:23N 50°30' E 000°57'1916.2
2014-Sep-19 07:11N 50°24' E 000°27'1517.3
2014-Sep-19 06:20N 50°20' E 000°05'1317.1
2014-Sep-19 05:33N 50°16' W 000°15'20611.4
2014-Sep-18 11:33N 50°39' W 005°36'1615.8
2014-Sep-18 10:33N 50°47' W 005°15'8116.2
2014-Sep-18 05:33N 51°21' W 003°19'1716.8
2014-Sep-18 04:33N 51°28' W 002°54'7 6.9
2014-Sep-18 03:33N 51°30' W 002°44'  

Dump ship's entire track history